Time;durP1;ratioP1;P1;durP2;ratioP2;P2;SDS_P1;SDS_P2;PMS_P1;PMS_P2;Temp;Humidity;BMP_temperature;BMP_pressure;BME280_temperature;BME280_humidity;BME280_pressure;Samples;Min_cycle;Max_cycle;Signal;HPM_P1;HPM_P2
2021/12/31 00:00:29;;;;;;;3.33;1.80;;;12.70;99.90;;;;;;5062356;28;20534;-76
2021/12/31 00:02:58;;;;;;;2.03;1.67;;;12.60;99.90;;;;;;5064846;28;21114;-77
2021/12/31 00:05:26;;;;;;;1.73;1.63;;;12.60;99.90;;;;;;5068280;28;20455;-74
2021/12/31 00:07:53;;;;;;;2.30;2.10;;;12.70;99.90;;;;;;5064033;28;20435;-75
2021/12/31 00:10:21;;;;;;;2.00;1.90;;;12.60;99.90;;;;;;5062495;28;20454;-77
2021/12/31 00:12:49;;;;;;;3.30;2.90;;;12.60;99.90;;;;;;5066259;28;20958;-75
2021/12/31 00:15:17;;;;;;;2.63;2.43;;;12.60;99.90;;;;;;5063761;28;20546;-77
2021/12/31 00:17:47;;;;;;;3.00;2.70;;;12.60;99.90;;;;;;5062837;28;20450;-75
2021/12/31 00:20:18;;;;;;;4.10;2.67;;;12.70;99.90;;;;;;5063094;28;20441;-75
2021/12/31 00:25:29;;;;;;;3.50;2.97;;;12.60;99.90;;;;;;5060579;28;20471;-76
2021/12/31 00:27:56;;;;;;;5.67;3.60;;;12.60;99.90;;;;;;5062168;28;20450;-76
2021/12/31 00:30:24;;;;;;;4.87;4.30;;;12.60;99.90;;;;;;5062448;28;20455;-76
2021/12/31 00:32:54;;;;;;;5.40;4.13;;;12.60;99.90;;;;;;5062987;28;20764;-75
2021/12/31 00:35:22;;;;;;;4.93;4.10;;;12.70;99.90;;;;;;5061475;28;20466;-76
2021/12/31 00:37:50;;;;;;;4.43;4.03;;;12.70;99.90;;;;;;5061704;28;20473;-76
2021/12/31 00:40:18;;;;;;;5.10;4.63;;;12.70;99.90;;;;;;5061414;28;20463;-75
2021/12/31 00:42:47;;;;;;;4.60;4.20;;;12.70;99.90;;;;;;5060883;28;20448;-76
2021/12/31 00:45:17;;;;;;;4.80;3.87;;;12.70;99.90;;;;;;5061051;28;20440;-76
2021/12/31 00:47:45;;;;;;;4.70;4.27;;;12.70;99.90;;;;;;5061140;28;20470;-76
2021/12/31 00:50:17;;;;;;;5.27;3.70;;;12.60;99.90;;;;;;5062464;28;20968;-76
2021/12/31 00:52:45;;;;;;;4.57;4.17;;;12.70;99.90;;;;;;5061545;28;20440;-76
2021/12/31 00:55:14;;;;;;;7.67;3.97;;;12.70;99.90;;;;;;5063873;28;20455;-78
2021/12/31 00:57:42;;;;;;;7.30;4.43;;;12.80;99.90;;;;;;5062421;28;21068;-76
2021/12/31 01:00:13;;;;;;;6.47;5.20;;;12.80;99.90;;;;;;5061452;28;20556;-77
2021/12/31 01:02:43;;;;;;;8.90;4.97;;;12.80;99.90;;;;;;5061085;28;21001;-69
2021/12/31 01:05:14;;;;;;;6.50;4.77;;;12.80;99.90;;;;;;5059240;28;20880;-71
2021/12/31 01:07:42;;;;;;;10.40;5.97;;;12.80;99.90;;;;;;5059620;28;20565;-69
2021/12/31 01:10:13;;;;;;;9.57;6.37;;;12.70;99.90;;;;;;5059942;28;20446;-71
2021/12/31 01:12:42;;;;;;;8.03;7.07;;;12.70;99.90;;;;;;5060147;28;20427;-70
2021/12/31 01:15:17;;;;;;;9.57;6.57;;;12.80;99.90;;;;;;5059710;28;20479;-70
2021/12/31 01:18:13;;;;;;;10.13;6.77;;;12.70;99.90;;;;;;5060217;28;20435;-71
2021/12/31 01:20:41;;;;;;;8.57;5.77;;;12.70;99.90;;;;;;5059330;28;20549;-70
2021/12/31 01:23:09;;;;;;;9.90;7.10;;;12.70;99.90;;;;;;5059763;28;20439;-70
2021/12/31 01:25:37;;;;;;;10.10;6.67;;;12.70;99.90;;;;;;5059736;28;20487;-70
2021/12/31 01:28:05;;;;;;;11.27;6.73;;;12.70;99.90;;;;;;5059462;28;20744;-72
2021/12/31 01:30:33;;;;;;;9.10;5.87;;;12.70;99.90;;;;;;5059402;28;20443;-70
2021/12/31 01:33:01;;;;;;;7.80;6.70;;;12.70;99.90;;;;;;5058560;28;20977;-69
2021/12/31 01:35:30;;;;;;;9.10;7.00;;;12.60;99.90;;;;;;5058403;28;20463;-69
2021/12/31 01:37:59;;;;;;;11.37;7.50;;;12.60;99.90;;;;;;5057955;28;20436;-72
2021/12/31 01:40:27;;;;;;;8.23;7.27;;;12.60;99.90;;;;;;5059025;28;20834;-71
2021/12/31 01:42:55;;;;;;;10.77;7.47;;;12.60;99.90;;;;;;5059280;28;20435;-71
2021/12/31 01:45:24;;;;;;;9.63;7.10;;;12.60;99.90;;;;;;5059745;28;21016;-71
2021/12/31 01:48:07;;;;;;;18.97;7.57;;;12.60;99.90;;;;;;5072485;28;20488;-70
2021/12/31 01:50:36;;;;;;;13.23;7.67;;;12.60;99.90;;;;;;5080033;28;21030;-72
2021/12/31 01:53:06;;;;;;;10.40;7.20;;;12.60;99.90;;;;;;5059224;28;20755;-71
2021/12/31 01:55:34;;;;;;;17.70;9.17;;;12.60;99.90;;;;;;5058773;28;21001;-71
2021/12/31 01:58:03;;;;;;;15.33;7.67;;;12.60;99.90;;;;;;5058747;28;20713;-70
2021/12/31 02:00:31;;;;;;;10.73;7.03;;;12.60;99.90;;;;;;5058708;28;20436;-71
2021/12/31 02:03:01;;;;;;;15.80;8.13;;;12.60;99.90;;;;;;5059034;28;20455;-70
2021/12/31 02:05:29;;;;;;;13.20;8.30;;;12.60;99.90;;;;;;5058326;28;20717;-70
2021/12/31 02:07:58;;;;;;;14.47;7.77;;;12.60;99.90;;;;;;5057697;28;20477;-71
2021/12/31 02:10:28;;;;;;;17.03;7.53;;;12.70;99.90;;;;;;5058667;28;20427;-70
2021/12/31 02:12:56;;;;;;;16.37;8.50;;;12.60;99.90;;;;;;5058172;28;20546;-69
2021/12/31 02:15:26;;;;;;;15.37;8.30;;;12.60;99.90;;;;;;5058047;28;21047;-70
2021/12/31 02:17:54;;;;;;;16.53;9.10;;;12.60;99.90;;;;;;5058528;28;20523;-70
2021/12/31 02:20:34;;;;;;;16.67;8.43;;;12.70;99.90;;;;;;5059081;28;20542;-69
2021/12/31 02:23:07;;;;;;;15.40;8.50;;;12.70;99.90;;;;;;5058569;28;20446;-71
2021/12/31 02:25:36;;;;;;;11.33;6.63;;;12.60;99.90;;;;;;5058524;28;20799;-71
2021/12/31 02:28:04;;;;;;;12.40;8.30;;;12.60;99.90;;;;;;5058027;28;20427;-70
2021/12/31 02:30:32;;;;;;;13.50;8.37;;;12.60;99.90;;;;;;5058120;28;20530;-69
2021/12/31 02:33:00;;;;;;;16.53;8.60;;;12.60;99.90;;;;;;5057861;28;20431;-72
2021/12/31 02:35:29;;;;;;;14.37;7.97;;;12.60;99.90;;;;;;5057740;28;20480;-71
2021/12/31 02:37:57;;;;;;;12.27;6.60;;;12.60;99.90;;;;;;5057882;28;21070;-70
2021/12/31 02:40:28;;;;;;;25.80;8.57;;;12.60;99.90;;;;;;5057962;28;20443;-71
2021/12/31 02:42:57;;;;;;;12.97;7.27;;;12.60;99.90;;;;;;5057798;28;20522;-72
2021/12/31 02:45:30;;;;;;;24.40;8.20;;;12.60;99.90;;;;;;5058284;28;20546;-71
2021/12/31 02:48:01;;;;;;;11.00;7.40;;;12.60;99.90;;;;;;5059877;28;20435;-71
2021/12/31 02:50:34;;;;;;;14.97;7.30;;;12.60;99.90;;;;;;5062233;28;20446;-71
2021/12/31 02:53:03;;;;;;;14.77;8.23;;;12.60;99.90;;;;;;5062966;28;20458;-71
2021/12/31 02:55:32;;;;;;;13.60;7.73;;;12.60;99.90;;;;;;5062953;28;20485;-72
2021/12/31 02:58:01;;;;;;;12.30;6.83;;;12.60;99.90;;;;;;5063144;28;20952;-71
2021/12/31 03:00:29;;;;;;;16.13;7.40;;;12.60;99.90;;;;;;5063210;28;20435;-70
2021/12/31 03:02:58;;;;;;;22.40;8.20;;;12.70;99.90;;;;;;5062891;28;20439;-69
2021/12/31 03:05:28;;;;;;;17.30;8.30;;;12.70;99.90;;;;;;5063158;28;20524;-69
2021/12/31 03:07:59;;;;;;;15.20;8.40;;;12.60;99.90;;;;;;5063415;28;21169;-69
2021/12/31 03:10:28;;;;;;;17.13;8.27;;;12.50;99.90;;;;;;5063138;28;20490;-69
2021/12/31 03:12:57;;;;;;;15.50;8.90;;;12.50;99.90;;;;;;5062488;28;20442;-70
2021/12/31 03:15:26;;;;;;;17.37;8.50;;;12.50;99.90;;;;;;5062207;28;21181;-69
2021/12/31 03:17:57;;;;;;;16.87;8.37;;;12.50;99.90;;;;;;5062225;28;20466;-69
2021/12/31 03:20:36;;;;;;;12.10;8.17;;;12.60;99.90;;;;;;5062313;28;20431;-70
2021/12/31 03:23:06;;;;;;;17.77;7.90;;;12.60;99.90;;;;;;5061945;28;20447;-70
2021/12/31 03:25:34;;;;;;;19.60;8.13;;;12.60;99.90;;;;;;5062185;28;20446;-70
2021/12/31 03:28:03;;;;;;;16.37;8.07;;;12.60;99.90;;;;;;5062345;28;20435;-71
2021/12/31 03:30:31;;;;;;;20.17;7.97;;;12.70;99.90;;;;;;5062573;28;20435;-70
2021/12/31 03:32:59;;;;;;;22.17;7.60;;;12.60;99.90;;;;;;5061882;28;20628;-70
2021/12/31 03:35:26;;;;;;;16.13;7.17;;;12.60;99.90;;;;;;5062313;28;20493;-69
2021/12/31 03:37:55;;;;;;;16.20;6.50;;;12.60;99.90;;;;;;5061945;28;20599;-70
2021/12/31 03:40:24;;;;;;;13.70;6.80;;;12.60;99.90;;;;;;5061426;28;20459;-69
2021/12/31 03:42:52;;;;;;;12.07;6.73;;;12.70;99.90;;;;;;5061518;28;20439;-69
2021/12/31 03:45:20;;;;;;;12.90;7.40;;;12.70;99.90;;;;;;5060782;28;20465;-69
2021/12/31 03:47:48;;;;;;;15.60;6.27;;;12.70;99.90;;;;;;5061495;28;20490;-73
2021/12/31 03:50:16;;;;;;;11.40;7.20;;;12.70;99.90;;;;;;5061436;28;20450;-69
2021/12/31 03:52:44;;;;;;;8.83;6.47;;;12.70;99.90;;;;;;5061004;28;20942;-68
2021/12/31 03:55:13;;;;;;;8.80;6.57;;;12.70;99.90;;;;;;5060482;28;20566;-72
2021/12/31 03:57:42;;;;;;;15.67;5.57;;;12.70;99.90;;;;;;5061214;28;20526;-71
2021/12/31 04:00:11;;;;;;;11.20;6.00;;;12.70;99.90;;;;;;5060009;28;20443;-68
2021/12/31 04:02:39;;;;;;;8.93;6.53;;;12.70;99.90;;;;;;5060709;28;20763;-69
2021/12/31 04:05:08;;;;;;;7.90;5.40;;;12.70;99.90;;;;;;5060758;28;20439;-70
2021/12/31 04:07:36;;;;;;;6.77;4.63;;;12.70;99.90;;;;;;5061065;28;20459;-71
2021/12/31 04:10:04;;;;;;;13.10;8.63;;;12.70;99.90;;;;;;5060623;28;20443;-70
2021/12/31 04:12:32;;;;;;;11.80;6.20;;;12.70;99.90;;;;;;5060409;28;20439;-69
2021/12/31 04:15:02;;;;;;;5.60;5.00;;;12.70;99.90;;;;;;5059710;28;20556;-72
2021/12/31 04:17:30;;;;;;;12.53;5.40;;;12.70;99.90;;;;;;5060394;28;20435;-70
2021/12/31 04:19:58;;;;;;;13.80;6.40;;;12.60;99.90;;;;;;5061757;28;20444;-69
2021/12/31 04:22:28;;;;;;;14.83;6.47;;;12.60;99.90;;;;;;5085348;28;20507;-71
2021/12/31 04:24:56;;;;;;;7.57;5.00;;;12.60;99.90;;;;;;5071859;28;20451;-71
2021/12/31 04:27:24;;;;;;;16.40;5.30;;;12.60;99.90;;;;;;5062086;28;20526;-69
2021/12/31 04:29:52;;;;;;;8.40;5.30;;;12.60;99.90;;;;;;5060884;28;20439;-70
2021/12/31 04:32:24;;;;;;;14.23;6.27;;;12.60;99.90;;;;;;5060186;28;20444;-71
2021/12/31 04:34:52;;;;;;;9.70;5.80;;;12.60;99.90;;;;;;5060515;28;20899;-72
2021/12/31 04:37:20;;;;;;;12.10;5.83;;;12.60;99.90;;;;;;5059803;28;20485;-72
2021/12/31 04:39:48;;;;;;;7.27;5.43;;;12.60;99.90;;;;;;5061028;28;20443;-71
2021/12/31 04:42:16;;;;;;;11.13;5.60;;;12.60;99.90;;;;;;5060453;28;20980;-69
2021/12/31 04:44:44;;;;;;;11.07;6.50;;;12.60;99.90;;;;;;5060166;28;20474;-70
2021/12/31 04:47:11;;;;;;;9.43;4.37;;;12.60;99.90;;;;;;5060352;28;20850;-72
2021/12/31 04:49:41;;;;;;;7.40;4.57;;;12.60;99.90;;;;;;5060926;28;20435;-70
2021/12/31 04:52:08;;;;;;;7.43;4.40;;;12.60;99.90;;;;;;5060372;28;21073;-70
2021/12/31 04:54:36;;;;;;;6.40;4.10;;;12.60;99.90;;;;;;5060528;28;20828;-70
2021/12/31 04:57:05;;;;;;;13.07;5.80;;;12.60;99.90;;;;;;5060057;28;20489;-70
2021/12/31 04:59:32;;;;;;;8.03;4.50;;;12.70;99.90;;;;;;5060062;28;20602;-69
2021/12/31 05:02:00;;;;;;;5.60;3.60;;;12.70;99.90;;;;;;5059990;28;20449;-70
2021/12/31 05:04:28;;;;;;;9.97;4.80;;;12.70;99.90;;;;;;5059421;28;20519;-70
2021/12/31 05:06:57;;;;;;;8.20;4.93;;;12.70;99.90;;;;;;5059257;28;20830;-71
2021/12/31 05:09:25;;;;;;;11.70;4.43;;;12.70;99.90;;;;;;5059507;28;20790;-68
2021/12/31 05:11:53;;;;;;;11.27;4.30;;;12.70;99.90;;;;;;5059258;28;20443;-71
2021/12/31 05:14:22;;;;;;;11.00;4.17;;;12.70;99.90;;;;;;5058975;28;20747;-68
2021/12/31 05:16:50;;;;;;;10.90;4.10;;;12.70;99.90;;;;;;5058840;28;20486;-68
2021/12/31 05:19:18;;;;;;;14.93;5.83;;;12.80;99.90;;;;;;5059398;28;20466;-68
2021/12/31 05:21:46;;;;;;;7.70;4.10;;;12.80;99.90;;;;;;5059257;28;20485;-69
2021/12/31 05:24:16;;;;;;;10.90;4.00;;;12.80;99.90;;;;;;5059110;28;20447;-68
2021/12/31 05:26:44;;;;;;;13.37;4.27;;;12.90;99.90;;;;;;5059018;28;20842;-70
2021/12/31 05:29:12;;;;;;;7.40;4.30;;;12.90;99.90;;;;;;5041727;28;20436;-70
2021/12/31 05:31:39;;;;;;;9.30;3.77;;;12.90;99.90;;;;;;5059331;28;20946;-70
2021/12/31 05:34:07;;;;;;;4.63;3.10;;;12.90;99.90;;;;;;5059242;28;21075;-70
2021/12/31 05:36:35;;;;;;;7.53;4.37;;;12.90;99.90;;;;;;5059444;28;21001;-71
2021/12/31 05:39:03;;;;;;;11.40;4.30;;;12.90;99.90;;;;;;5059047;28;20435;-70
2021/12/31 05:41:34;;;;;;;5.30;3.40;;;12.90;99.90;;;;;;5060809;28;20439;-70
2021/12/31 05:44:02;;;;;;;7.27;3.33;;;12.90;99.90;;;;;;5062406;28;20508;-71
2021/12/31 05:46:29;;;;;;;4.17;3.73;;;12.90;99.90;;;;;;5060734;28;20451;-70
2021/12/31 05:48:57;;;;;;;6.27;3.40;;;13.00;99.90;;;;;;5062756;28;20523;-70
2021/12/31 05:51:27;;;;;;;10.87;2.97;;;13.00;99.90;;;;;;5066921;28;20591;-70
2021/12/31 05:53:56;;;;;;;7.63;3.67;;;13.00;99.90;;;;;;5073053;28;20440;-70
2021/12/31 05:56:24;;;;;;;7.40;3.57;;;12.90;99.90;;;;;;5074906;28;20479;-71
2021/12/31 05:58:53;;;;;;;5.93;4.07;;;12.90;99.90;;;;;;5075830;28;20449;-70
2021/12/31 06:01:21;;;;;;;7.27;3.83;;;13.00;99.90;;;;;;5074742;28;20684;-71
2021/12/31 06:03:49;;;;;;;7.23;3.47;;;13.00;99.90;;;;;;5074484;28;20439;-70
2021/12/31 06:06:17;;;;;;;7.23;4.30;;;13.00;99.90;;;;;;5070349;28;20550;-69
2021/12/31 06:08:45;;;;;;;4.77;3.70;;;13.10;99.90;;;;;;5059732;28;20451;-70
2021/12/31 06:11:13;;;;;;;8.07;5.03;;;13.00;99.90;;;;;;5059401;28;20450;-69
2021/12/31 06:13:43;;;;;;;7.87;4.30;;;13.10;99.90;;;;;;5058982;28;20443;-69
2021/12/31 06:16:13;;;;;;;7.73;5.20;;;13.00;99.90;;;;;;5058613;28;20537;-68
2021/12/31 06:18:44;;;;;;;5.30;3.90;;;13.10;99.90;;;;;;5058775;28;20953;-69
2021/12/31 06:21:12;;;;;;;4.90;4.40;;;13.10;99.90;;;;;;5058715;28;20457;-72
2021/12/31 06:23:39;;;;;;;8.50;5.40;;;13.10;99.90;;;;;;5058030;28;20455;-69
2021/12/31 06:26:27;;;;;;;5.87;4.90;;;13.10;99.90;;;;;;5058342;28;20471;-71
2021/12/31 06:28:55;;;;;;;7.47;4.40;;;13.20;99.90;;;;;;5058322;28;20443;-69
2021/12/31 06:31:25;;;;;;;8.50;4.70;;;13.10;99.90;;;;;;5058416;28;20439;-69
2021/12/31 06:33:53;;;;;;;11.37;4.57;;;13.20;99.90;;;;;;5058070;28;20447;-70
2021/12/31 06:36:21;;;;;;;9.00;5.50;;;13.20;99.90;;;;;;5058208;28;20857;-70
2021/12/31 06:38:50;;;;;;;5.07;4.60;;;13.10;99.90;;;;;;5058113;28;20469;-69
2021/12/31 06:41:20;;;;;;;7.17;5.47;;;13.10;99.90;;;;;;5057977;28;20470;-69
2021/12/31 06:43:48;;;;;;;6.70;5.43;;;13.10;99.90;;;;;;5058221;28;20526;-69
2021/12/31 06:46:16;;;;;;;11.00;5.97;;;13.10;99.90;;;;;;5057648;28;20677;-70
2021/12/31 06:48:46;;;;;;;6.60;6.10;;;13.10;99.90;;;;;;5057947;28;20977;-71
2021/12/31 06:51:13;;;;;;;7.43;6.30;;;13.00;99.90;;;;;;5057565;28;20451;-71
2021/12/31 06:53:41;;;;;;;6.93;6.23;;;13.00;99.90;;;;;;5069243;28;20429;-72
2021/12/31 06:56:09;;;;;;;10.07;6.20;;;13.00;99.90;;;;;;5081819;28;20482;-70
2021/12/31 06:58:38;;;;;;;7.10;6.40;;;13.00;99.90;;;;;;5060107;28;20478;-70
2021/12/31 07:01:06;;;;;;;7.83;7.13;;;13.00;99.90;;;;;;5058483;28;20450;-69
2021/12/31 07:03:34;;;;;;;9.50;7.50;;;12.90;99.90;;;;;;5058979;28;20543;-71
2021/12/31 07:06:04;;;;;;;7.43;6.70;;;12.90;99.90;;;;;;5058291;28;20455;-71
2021/12/31 07:08:31;;;;;;;8.70;6.80;;;12.90;99.90;;;;;;5058529;28;20766;-71
2021/12/31 07:10:59;;;;;;;9.80;7.60;;;13.00;99.90;;;;;;5055341;28;20447;-69
2021/12/31 07:13:27;;;;;;;9.73;7.70;;;13.00;99.90;;;;;;5057059;28;20447;-70
2021/12/31 07:15:55;;;;;;;7.63;6.93;;;12.90;99.90;;;;;;5057959;28;20481;-73
2021/12/31 07:18:24;;;;;;;9.20;7.43;;;12.90;99.90;;;;;;5057828;28;20775;-70
2021/12/31 07:20:52;;;;;;;8.60;7.70;;;12.90;99.90;;;;;;5077769;28;21019;-70
2021/12/31 07:23:22;;;;;;;9.60;7.93;;;13.00;99.90;;;;;;5077364;28;20469;-71
2021/12/31 07:25:51;;;;;;;8.70;6.87;;;13.00;99.90;;;;;;5077333;28;20596;-72
2021/12/31 07:28:19;;;;;;;9.13;8.10;;;13.00;99.90;;;;;;5077717;28;20540;-70
2021/12/31 07:30:48;;;;;;;8.93;7.73;;;13.10;99.90;;;;;;5077830;28;20460;-70
2021/12/31 07:33:18;;;;;;;7.93;7.13;;;13.10;99.90;;;;;;5077495;28;20707;-69
2021/12/31 07:35:46;;;;;;;9.10;7.13;;;13.10;99.90;;;;;;5080258;28;20473;-69
2021/12/31 07:38:20;;;;;;;8.10;7.17;;;13.10;99.90;;;;;;5081342;28;20478;-69
2021/12/31 07:40:51;;;;;;;13.70;8.57;;;13.10;99.90;;;;;;5081033;28;20563;-71
2021/12/31 07:43:22;;;;;;;8.10;7.43;;;13.10;99.90;;;;;;5080926;28;20446;-69
2021/12/31 07:45:50;;;;;;;9.00;8.10;;;13.10;99.90;;;;;;5066528;28;20841;-68
2021/12/31 07:48:18;;;;;;;11.43;7.03;;;13.10;99.90;;;;;;5060190;28;20518;-69
2021/12/31 07:50:47;;;;;;;9.80;8.83;;;13.10;99.90;;;;;;5060631;28;20530;-68
2021/12/31 07:53:15;;;;;;;9.43;7.73;;;13.00;99.90;;;;;;5060886;28;20439;-69
2021/12/31 07:55:44;;;;;;;8.80;7.97;;;13.00;99.90;;;;;;5061447;28;20455;-69
2021/12/31 07:58:13;;;;;;;8.03;7.27;;;13.00;99.90;;;;;;5060637;28;20764;-69
2021/12/31 08:00:41;;;;;;;13.67;8.70;;;13.00;99.90;;;;;;5060564;28;20743;-69
2021/12/31 08:03:09;;;;;;;8.70;7.73;;;13.00;99.90;;;;;;5061523;28;20539;-70
2021/12/31 08:05:38;;;;;;;11.53;8.20;;;13.10;99.90;;;;;;5062689;28;20455;-71
2021/12/31 08:08:06;;;;;;;18.53;8.37;;;13.10;99.90;;;;;;5061979;28;20759;-68
2021/12/31 08:10:34;;;;;;;7.50;6.80;;;13.10;99.90;;;;;;5061080;28;20428;-68
2021/12/31 08:13:24;;;;;;;9.90;7.97;;;13.20;99.90;;;;;;5061171;28;20436;-68
2021/12/31 08:15:52;;;;;;;9.17;7.63;;;13.20;99.90;;;;;;5061597;28;20686;-70
2021/12/31 08:18:20;;;;;;;8.43;7.60;;;13.20;99.90;;;;;;5060899;28;21034;-68
2021/12/31 08:20:47;;;;;;;9.27;8.40;;;13.20;99.90;;;;;;5060397;28;20439;-69
2021/12/31 08:23:16;;;;;;;7.70;7.00;;;13.30;99.90;;;;;;5059902;28;20435;-69
2021/12/31 08:25:43;;;;;;;8.07;7.27;;;13.30;99.90;;;;;;5057375;28;21016;-68
2021/12/31 08:28:12;;;;;;;7.60;7.00;;;13.30;99.90;;;;;;5061873;28;21003;-69
2021/12/31 08:30:41;;;;;;;7.90;7.13;;;13.30;99.90;;;;;;5061052;28;20545;-68
2021/12/31 08:33:09;;;;;;;7.10;6.50;;;13.30;99.90;;;;;;5060843;28;20471;-68
2021/12/31 08:35:37;;;;;;;6.70;6.10;;;13.30;99.90;;;;;;5061158;28;21341;-68
2021/12/31 08:38:04;;;;;;;9.33;6.83;;;13.40;99.90;;;;;;5060179;28;20478;-69
2021/12/31 08:40:32;;;;;;;6.57;6.07;;;13.40;99.90;;;;;;5062499;28;20948;-68
2021/12/31 08:43:00;;;;;;;6.87;6.37;;;13.50;99.90;;;;;;5061706;28;20438;-68
2021/12/31 08:45:32;;;;;;;6.40;5.90;;;13.50;99.90;;;;;;5060870;28;20451;-69
2021/12/31 08:48:02;;;;;;;5.43;5.10;;;13.50;99.90;;;;;;5060846;28;20444;-69
2021/12/31 08:50:31;;;;;;;5.80;5.40;;;13.50;99.90;;;;;;5060994;28;21129;-70
2021/12/31 08:52:59;;;;;;;8.60;6.20;;;13.60;99.90;;;;;;5060257;28;20453;-69
2021/12/31 08:55:27;;;;;;;7.80;6.03;;;13.60;99.90;;;;;;5060259;28;20467;-70
2021/12/31 08:57:54;;;;;;;5.93;5.47;;;13.60;99.90;;;;;;5060534;28;20481;-71
2021/12/31 09:00:23;;;;;;;10.27;6.40;;;13.60;99.90;;;;;;5060215;28;20493;-68
2021/12/31 09:02:51;;;;;;;6.07;5.43;;;13.60;99.90;;;;;;5060393;28;20442;-69
2021/12/31 09:05:22;;;;;;;6.03;5.43;;;13.60;99.90;;;;;;5059608;28;20459;-69
2021/12/31 09:07:51;;;;;;;5.77;4.30;;;13.70;99.90;;;;;;5060176;28;20435;-70
2021/12/31 09:10:20;;;;;;;4.80;4.20;;;13.70;99.90;;;;;;5059527;28;20509;-68
2021/12/31 09:12:50;;;;;;;4.30;4.00;;;13.80;99.90;;;;;;5060034;28;20466;-68
2021/12/31 09:15:18;;;;;;;7.20;4.90;;;13.80;99.90;;;;;;5060149;28;20467;-68
2021/12/31 09:17:47;;;;;;;5.87;3.90;;;13.80;99.90;;;;;;5060383;28;20471;-69
2021/12/31 09:20:15;;;;;;;4.23;3.93;;;13.80;99.90;;;;;;5060846;28;20522;-69
2021/12/31 09:22:45;;;;;;;4.30;3.90;;;13.90;99.90;;;;;;5061199;28;20845;-69
2021/12/31 09:25:13;;;;;;;3.60;3.30;;;13.90;99.90;;;;;;5062492;28;20450;-69
2021/12/31 09:27:41;;;;;;;5.10;3.73;;;13.90;99.90;;;;;;5085502;28;20420;-68
2021/12/31 09:30:11;;;;;;;4.13;3.83;;;13.90;99.90;;;;;;5073265;28;20466;-69
2021/12/31 09:32:39;;;;;;;4.33;3.63;;;13.90;99.90;;;;;;5059889;28;20526;-68
2021/12/31 09:35:08;;;;;;;3.87;3.60;;;14.00;99.90;;;;;;5060020;28;20443;-69
2021/12/31 09:37:36;;;;;;;6.40;3.50;;;13.90;99.90;;;;;;5059565;28;20443;-68
2021/12/31 09:40:07;;;;;;;3.67;3.37;;;13.90;99.90;;;;;;5059460;28;20546;-69
2021/12/31 09:42:36;;;;;;;3.40;2.83;;;13.90;99.90;;;;;;5059628;28;20443;-69
2021/12/31 09:45:05;;;;;;;5.20;3.13;;;14.00;99.90;;;;;;5058875;28;20445;-69
2021/12/31 09:47:33;;;;;;;4.50;3.50;;;14.00;99.90;;;;;;5059854;28;20946;-70
2021/12/31 09:50:01;;;;;;;3.50;3.20;;;14.00;99.90;;;;;;5059540;28;20432;-69
2021/12/31 09:52:31;;;;;;;3.37;2.97;;;13.90;99.90;;;;;;5060055;28;20827;-69
2021/12/31 09:54:59;;;;;;;5.53;3.13;;;14.00;99.90;;;;;;5059308;28;20462;-69
2021/12/31 09:57:28;;;;;;;5.13;3.67;;;14.00;99.90;;;;;;5060471;28;20526;-72
2021/12/31 10:00:02;;;;;;;10.90;3.47;;;14.00;99.90;;;;;;5060134;28;20471;-69
2021/12/31 10:02:33;;;;;;;3.33;3.03;;;13.90;99.90;;;;;;5059978;28;20545;-68
2021/12/31 10:05:03;;;;;;;3.50;2.90;;;13.90;99.90;;;;;;5060803;28;20463;-69
2021/12/31 10:07:33;;;;;;;6.67;3.50;;;13.90;99.90;;;;;;5059622;28;20535;-68
2021/12/31 10:10:10;;;;;;;4.13;2.73;;;13.90;99.90;;;;;;5059377;28;20440;-70
2021/12/31 10:13:01;;;;;;;6.30;3.07;;;14.00;99.90;;;;;;5059345;28;20586;-69
2021/12/31 10:15:37;;;;;;;4.50;3.53;;;13.90;99.90;;;;;;5054370;28;20463;-69
2021/12/31 10:18:10;;;;;;;2.97;2.77;;;14.00;99.90;;;;;;5059339;28;20432;-71
2021/12/31 10:20:48;;;;;;;2.57;2.47;;;14.10;99.90;;;;;;5059431;28;20511;-73
2021/12/31 10:23:17;;;;;;;6.40;3.70;;;14.10;99.90;;;;;;5058720;28;20576;-71
2021/12/31 10:25:45;;;;;;;4.20;3.80;;;14.10;99.90;;;;;;5059384;28;20538;-70
2021/12/31 10:28:16;;;;;;;3.27;2.93;;;14.10;99.90;;;;;;5059347;28;20442;-72
2021/12/31 10:30:45;;;;;;;5.40;3.03;;;14.10;99.90;;;;;;5058848;28;20451;-72
2021/12/31 10:33:13;;;;;;;2.67;2.50;;;14.10;99.90;;;;;;5059039;28;20942;-72
2021/12/31 10:35:42;;;;;;;2.90;2.67;;;14.20;99.90;;;;;;5059888;28;20450;-72
2021/12/31 10:38:12;;;;;;;3.00;2.60;;;14.20;99.90;;;;;;5059952;28;20447;-72
2021/12/31 10:40:43;;;;;;;5.00;2.67;;;14.20;99.90;;;;;;5058961;28;20478;-71
2021/12/31 10:43:16;;;;;;;3.37;3.07;;;14.30;99.90;;;;;;5059022;28;20439;-72
2021/12/31 10:46:02;;;;;;;2.80;2.60;;;14.30;99.90;;;;;;5058206;28;21192;-68
2021/12/31 10:48:41;;;;;;;3.50;2.27;;;14.40;99.90;;;;;;5058328;28;20448;-70
2021/12/31 10:51:10;;;;;;;5.80;2.90;;;14.40;99.90;;;;;;5057233;28;20435;-70
2021/12/31 10:53:39;;;;;;;4.40;2.67;;;14.40;99.90;;;;;;5058420;28;20443;-70
2021/12/31 10:56:09;;;;;;;3.30;3.00;;;14.40;99.90;;;;;;5055906;28;20455;-70
2021/12/31 10:58:40;;;;;;;2.77;2.57;;;14.30;99.90;;;;;;5058633;28;21202;-70
2021/12/31 11:01:10;;;;;;;2.33;2.13;;;14.30;99.90;;;;;;5058528;28;20878;-69
2021/12/31 11:03:39;;;;;;;6.03;2.70;;;14.40;99.90;;;;;;5058924;28;20526;-69
2021/12/31 11:06:12;;;;;;;3.73;2.87;;;14.30;99.90;;;;;;5059192;28;20725;-68
2021/12/31 11:08:44;;;;;;;2.90;2.63;;;14.30;99.90;;;;;;5061314;28;20512;-68
2021/12/31 11:11:13;;;;;;;2.90;2.70;;;14.20;99.90;;;;;;5064107;28;20431;-69
2021/12/31 11:13:45;;;;;;;2.70;2.60;;;14.30;99.90;;;;;;5061178;28;20463;-68
2021/12/31 11:16:14;;;;;;;2.83;2.63;;;14.20;99.90;;;;;;5063952;28;20591;-69
2021/12/31 11:18:42;;;;;;;4.17;2.93;;;14.20;99.90;;;;;;5064122;28;20516;-70
2021/12/31 11:21:13;;;;;;;3.70;3.40;;;14.10;99.90;;;;;;5064888;28;20442;-70
2021/12/31 11:23:45;;;;;;;3.83;3.50;;;14.10;99.90;;;;;;5063042;28;20435;-70
2021/12/31 11:26:13;;;;;;;6.03;2.80;;;14.10;99.90;;;;;;5062421;28;20565;-72
2021/12/31 11:28:44;;;;;;;4.23;2.97;;;14.10;99.90;;;;;;5064211;28;20446;-71
2021/12/31 11:31:24;;;;;;;3.07;2.77;;;14.10;99.90;;;;;;5062609;28;20445;-71
2021/12/31 11:34:15;;;;;;;3.50;3.20;;;14.20;99.90;;;;;;5058713;28;20442;-70
2021/12/31 11:36:51;;;;;;;4.97;3.40;;;14.20;99.90;;;;;;5059974;28;20451;-71
2021/12/31 11:39:25;;;;;;;5.00;3.50;;;14.10;99.90;;;;;;5063036;28;20488;-71
2021/12/31 11:41:55;;;;;;;3.90;3.60;;;14.10;99.90;;;;;;5063300;28;20435;-71
2021/12/31 11:44:26;;;;;;;3.60;3.30;;;14.10;99.90;;;;;;5058930;28;20522;-72
2021/12/31 11:47:13;;;;;;;4.00;3.60;;;14.10;99.90;;;;;;5063142;28;20455;-71
2021/12/31 11:49:42;;;;;;;7.33;3.70;;;14.10;99.90;;;;;;5062347;28;20552;-72
2021/12/31 11:52:13;;;;;;;3.53;3.17;;;14.10;99.90;;;;;;5063659;28;20485;-71
2021/12/31 11:54:45;;;;;;;3.40;3.17;;;14.10;99.90;;;;;;5061708;28;20512;-71
2021/12/31 11:57:19;;;;;;;3.93;3.67;;;14.20;99.90;;;;;;5063735;28;20467;-71
2021/12/31 11:59:53;;;;;;;3.07;2.87;;;14.10;99.90;;;;;;5072042;28;20486;-70
2021/12/31 12:02:36;;;;;;;3.83;3.40;;;14.10;99.90;;;;;;5085669;28;20434;-70
2021/12/31 12:05:11;;;;;;;4.50;4.07;;;14.10;99.90;;;;;;5071984;28;20430;-71
2021/12/31 12:07:42;;;;;;;3.50;3.20;;;14.10;99.90;;;;;;5077058;28;20455;-73
2021/12/31 12:10:28;;;;;;;3.90;3.70;;;14.00;99.90;;;;;;5069729;28;20601;-75
2021/12/31 12:13:22;;;;;;;4.60;3.30;;;13.90;99.90;;;;;;5080157;28;20420;-73
2021/12/31 12:15:53;;;;;;;6.40;3.90;;;13.90;99.90;;;;;;5070350;28;20745;-73
2021/12/31 12:18:56;;;;;;;3.93;3.70;;;13.80;99.90;;;;;;5066377;28;20455;-71
2021/12/31 12:21:35;;;;;;;7.10;4.10;;;13.70;99.90;;;;;;5068292;28;20507;-72
2021/12/31 12:24:04;;;;;;;5.57;4.03;;;13.60;99.90;;;;;;5082522;28;20445;-72
2021/12/31 12:26:32;;;;;;;4.67;4.27;;;13.50;99.90;;;;;;5082831;28;20455;-71
2021/12/31 12:29:00;;;;;;;5.13;4.20;;;13.40;99.90;;;;;;5083652;28;20537;-70
2021/12/31 12:31:35;;;;;;;9.53;4.90;;;13.30;99.90;;;;;;5083031;28;20449;-74
2021/12/31 12:34:03;;;;;;;5.60;5.07;;;13.20;99.90;;;;;;5082785;28;20442;-70
2021/12/31 12:36:31;;;;;;;5.33;4.93;;;13.20;99.90;;;;;;5082756;28;20478;-71
2021/12/31 12:39:05;;;;;;;8.70;5.20;;;13.20;99.90;;;;;;5083385;28;20448;-72
2021/12/31 12:41:33;;;;;;;6.17;5.57;;;13.10;99.90;;;;;;5082581;28;20931;-70
2021/12/31 12:44:08;;;;;;;5.00;4.70;;;13.10;99.90;;;;;;5082643;28;20517;-70
2021/12/31 12:46:37;;;;;;;7.97;5.17;;;13.10;99.90;;;;;;5082748;28;20456;-71
2021/12/31 12:49:13;;;;;;;6.00;5.50;;;13.10;99.90;;;;;;5082360;28;20442;-71
2021/12/31 12:51:42;;;;;;;5.87;5.37;;;13.10;99.90;;;;;;5082663;28;20453;-71
2021/12/31 12:54:13;;;;;;;5.37;4.93;;;13.00;99.90;;;;;;5083589;28;20442;-70
2021/12/31 12:56:41;;;;;;;6.63;6.13;;;13.00;99.90;;;;;;5082269;28;20487;-70
2021/12/31 12:59:10;;;;;;;10.63;6.67;;;13.00;99.90;;;;;;5082932;28;20438;-70